createdAt,value
2022-12-25T00:04:08.398Z,13.45
2022-12-25T00:09:06.654Z,12.32
2022-12-25T00:14:04.759Z,11.52
2022-12-25T00:19:01.838Z,10.43
2022-12-25T00:23:59.871Z,10.32
2022-12-25T00:28:58.201Z,9.60
2022-12-25T00:33:56.114Z,10.05
2022-12-25T00:38:54.883Z,10.65
2022-12-25T00:43:51.909Z,8.93
2022-12-25T00:48:48.874Z,10.73
2022-12-25T00:53:47.022Z,9.82
2022-12-25T00:58:44.113Z,9.30
2022-12-25T01:03:41.305Z,9.80
2022-12-25T01:09:00.261Z,10.02
2022-12-25T01:13:58.377Z,10.98
2022-12-25T01:18:55.855Z,11.23
2022-12-25T01:23:53.606Z,10.98
2022-12-25T01:28:54.252Z,11.35
2022-12-25T01:33:52.257Z,11.00
2022-12-25T01:38:50.303Z,11.82
2022-12-25T01:44:00.210Z,10.38
2022-12-25T01:49:05.187Z,10.48
2022-12-25T01:54:05.735Z,11.57
2022-12-25T01:59:04.591Z,9.63
2022-12-25T02:04:08.920Z,10.48
2022-12-25T02:09:06.189Z,9.65
2022-12-25T02:14:03.358Z,10.32
2022-12-25T02:19:11.362Z,11.95
2022-12-25T02:24:41.975Z,11.30
2022-12-25T02:29:48.137Z,11.55
2022-12-25T02:34:52.074Z,10.40
2022-12-25T02:40:01.775Z,12.57
2022-12-25T02:45:17.921Z,11.25
2022-12-25T02:50:34.186Z,12.40
2022-12-25T02:55:55.307Z,10.98
2022-12-25T03:01:26.088Z,12.07
2022-12-25T03:06:44.249Z,13.88
2022-12-25T03:11:45.765Z,11.77
2022-12-25T03:16:53.234Z,12.18
2022-12-25T03:22:08.585Z,11.65
2022-12-25T03:27:05.590Z,12.93
2022-12-25T03:32:35.063Z,13.02
2022-12-25T03:38:12.067Z,13.80
2022-12-25T03:43:42.767Z,13.93
2022-12-25T03:49:20.468Z,15.10
2022-12-25T03:54:41.809Z,13.98
2022-12-25T04:00:00.166Z,16.98
2022-12-25T04:05:15.971Z,15.27
2022-12-25T04:10:31.236Z,14.68
2022-12-25T04:15:46.830Z,16.10
2022-12-25T04:21:01.815Z,15.05
2022-12-25T04:26:17.216Z,14.88
2022-12-25T04:31:32.181Z,14.17
2022-12-25T04:36:30.239Z,15.68
2022-12-25T04:41:27.326Z,15.07
2022-12-25T04:46:24.610Z,14.57
2022-12-25T04:51:24.940Z,14.55
2022-12-25T04:56:23.262Z,14.25
2022-12-25T05:01:20.407Z,14.30
2022-12-25T05:06:17.591Z,15.85
2022-12-25T05:11:16.316Z,15.30
2022-12-25T05:16:16.369Z,14.70
2022-12-25T05:21:13.818Z,15.07
2022-12-25T05:26:10.723Z,13.02
2022-12-25T05:31:07.694Z,13.50
2022-12-25T05:36:07.552Z,13.02
2022-12-25T05:41:05.255Z,14.90
2022-12-25T05:46:06.141Z,15.52
2022-12-25T05:51:08.982Z,14.38
2022-12-25T05:56:07.982Z,14.57
2022-12-25T06:01:10.800Z,13.15
2022-12-25T06:06:08.807Z,13.82
2022-12-25T06:11:07.854Z,14.05
2022-12-25T06:16:05.983Z,13.25
2022-12-25T06:21:07.327Z,13.10
2022-12-25T06:26:20.391Z,13.73
2022-12-25T06:31:19.986Z,11.93
2022-12-25T06:36:20.092Z,14.55
2022-12-25T06:41:19.509Z,14.15
2022-12-25T06:46:17.135Z,11.80
2022-12-25T06:51:14.739Z,12.77
2022-12-25T06:56:14.975Z,12.63
2022-12-25T07:01:18.934Z,12.25
2022-12-25T07:06:17.126Z,11.57
2022-12-25T07:11:14.213Z,12.18
2022-12-25T07:16:12.622Z,12.52
2022-12-25T07:21:12.396Z,11.27
2022-12-25T07:26:10.997Z,13.95
2022-12-25T07:31:14.462Z,11.80
2022-12-25T07:36:20.671Z,10.27
2022-12-25T07:41:18.067Z,10.88
2022-12-25T07:46:15.126Z,10.55
2022-12-25T07:51:14.658Z,10.48
2022-12-25T07:56:13.791Z,11.70
2022-12-25T08:01:13.506Z,11.13
2022-12-25T08:06:11.518Z,11.73
2022-12-25T08:11:14.370Z,11.55
2022-12-25T08:16:11.518Z,11.85
2022-12-25T08:21:10.739Z,12.50
2022-12-25T08:26:11.801Z,12.75
2022-12-25T08:31:11.194Z,12.10
2022-12-25T08:36:11.366Z,11.52
2022-12-25T08:41:09.807Z,11.70
2022-12-25T08:46:07.010Z,12.00
2022-12-25T08:51:05.286Z,12.95
2022-12-25T08:56:05.872Z,11.43
2022-12-25T09:01:04.507Z,11.57
2022-12-25T09:06:03.727Z,12.13
2022-12-25T09:11:02.355Z,11.88
2022-12-25T09:16:00.482Z,11.90
2022-12-25T09:21:01.716Z,11.43
2022-12-25T09:26:03.684Z,10.93
2022-12-25T09:31:02.598Z,10.88
2022-12-25T09:36:01.734Z,10.95
2022-12-25T09:41:01.446Z,11.63
2022-12-25T09:46:00.379Z,10.35
2022-12-25T09:51:03.305Z,12.48
2022-12-25T09:56:15.093Z,11.75
2022-12-25T10:01:34.114Z,10.98
2022-12-25T10:06:54.204Z,11.57
2022-12-25T10:12:09.420Z,13.30
2022-12-25T10:17:29.490Z,11.55
2022-12-25T10:22:34.483Z,12.20
2022-12-25T10:27:35.464Z,13.43
2022-12-25T10:32:36.761Z,12.88
2022-12-25T10:37:34.995Z,13.52
2022-12-25T10:42:46.292Z,12.52
2022-12-25T10:47:46.021Z,13.60
2022-12-25T10:52:56.768Z,12.98
2022-12-25T10:57:54.631Z,12.90
2022-12-25T11:02:55.208Z,12.20
2022-12-25T11:07:56.401Z,11.77
2022-12-25T11:13:05.429Z,11.95
2022-12-25T11:18:03.140Z,13.32
2022-12-25T11:23:01.038Z,11.60
2022-12-25T11:28:04.474Z,11.50
2022-12-25T11:33:05.189Z,10.85
2022-12-25T11:38:03.660Z,10.60
2022-12-25T11:43:08.347Z,10.52
2022-12-25T11:48:17.999Z,10.97
2022-12-25T11:53:23.303Z,11.82
2022-12-25T11:58:25.891Z,12.32
2022-12-25T12:03:28.331Z,11.23
2022-12-25T12:08:28.041Z,11.35
2022-12-25T12:13:43.924Z,10.90
2022-12-25T12:18:46.576Z,11.68
2022-12-25T12:23:53.766Z,13.45
2022-12-25T12:28:58.434Z,13.57
2022-12-25T12:33:58.432Z,15.57
2022-12-25T12:38:58.552Z,16.98
2022-12-25T12:44:03.451Z,15.70
2022-12-25T12:49:17.210Z,15.30
2022-12-25T12:54:22.637Z,13.95
2022-12-25T12:59:19.583Z,11.75
2022-12-25T13:04:57.784Z,12.18
2022-12-25T13:10:07.648Z,12.40
2022-12-25T13:15:12.296Z,9.32
2022-12-25T13:20:22.427Z,9.53
2022-12-25T13:25:22.197Z,11.73
2022-12-25T13:30:21.978Z,12.10
2022-12-25T13:35:23.270Z,9.90
2022-12-25T13:40:30.839Z,11.07
2022-12-25T13:45:30.021Z,10.48
2022-12-25T13:50:31.894Z,11.27
2022-12-25T13:55:29.975Z,14.82
2022-12-25T14:00:34.933Z,12.05
2022-12-25T14:05:41.616Z,11.52
2022-12-25T14:10:41.642Z,10.50
2022-12-25T14:15:40.234Z,10.50
2022-12-25T14:20:40.906Z,9.68
2022-12-25T14:25:44.001Z,11.00
2022-12-25T14:30:42.834Z,11.23
2022-12-25T14:35:39.764Z,11.65
2022-12-25T14:40:37.133Z,10.73
2022-12-25T14:45:37.976Z,12.38
2022-12-25T14:50:39.031Z,12.35
2022-12-25T14:55:37.589Z,12.13
2022-12-25T15:00:40.862Z,15.27
2022-12-25T15:05:40.682Z,13.75
2022-12-25T15:15:59.690Z,16.73
2022-12-25T15:20:56.598Z,15.25
2022-12-25T15:25:53.427Z,14.35
2022-12-25T15:30:50.282Z,14.65
2022-12-25T15:35:48.404Z,16.80
2022-12-25T15:40:46.802Z,18.77
2022-12-25T15:45:44.885Z,15.63
2022-12-25T15:50:43.601Z,15.60
2022-12-25T15:55:41.473Z,14.63
2022-12-25T16:00:38.340Z,25.40
2022-12-25T16:05:35.605Z,24.63
2022-12-25T16:10:43.498Z,21.77
2022-12-25T16:15:40.768Z,21.17
2022-12-25T16:20:38.027Z,24.00
2022-12-25T16:25:34.818Z,26.65
2022-12-25T16:30:32.568Z,30.02
2022-12-25T16:35:29.545Z,28.67
2022-12-25T16:40:26.903Z,28.55
2022-12-25T16:45:23.959Z,26.48
2022-12-25T16:50:23.225Z,26.35
2022-12-25T16:55:29.673Z,26.48
2022-12-25T17:00:27.203Z,24.48
2022-12-25T17:05:24.932Z,24.88
2022-12-25T17:10:22.134Z,25.33
2022-12-25T17:15:21.598Z,26.58
2022-12-25T17:20:28.475Z,25.67
2022-12-25T17:25:26.883Z,23.42
2022-12-25T17:30:23.933Z,21.30
2022-12-25T17:35:22.836Z,21.77
2022-12-25T17:40:22.190Z,22.08
2022-12-25T17:45:22.129Z,23.40
2022-12-25T17:50:19.078Z,23.08
2022-12-25T17:55:18.103Z,20.08
2022-12-25T18:00:16.150Z,19.60
2022-12-25T18:05:13.985Z,18.75
2022-12-25T18:10:11.343Z,16.83
2022-12-25T18:15:11.764Z,17.38
2022-12-25T18:20:09.639Z,15.63
2022-12-25T18:25:08.240Z,14.75
2022-12-25T18:30:12.445Z,16.10
2022-12-25T18:35:11.313Z,17.95
2022-12-25T18:40:09.992Z,17.75
2022-12-25T18:45:09.432Z,18.02
2022-12-25T18:50:08.575Z,17.58
2022-12-25T18:55:06.782Z,17.13
2022-12-25T19:00:05.476Z,15.85
2022-12-25T19:05:02.768Z,15.48
2022-12-25T19:09:59.781Z,18.48
2022-12-25T19:14:59.544Z,18.30
2022-12-25T19:19:57.390Z,19.10
2022-12-25T19:24:54.557Z,17.77
2022-12-25T19:29:51.680Z,16.80
2022-12-25T19:34:48.805Z,17.15
2022-12-25T19:39:46.745Z,18.33
2022-12-25T19:44:44.241Z,15.93
2022-12-25T19:49:57.361Z,16.85
2022-12-25T19:54:58.792Z,16.42
2022-12-25T19:59:56.208Z,19.48
2022-12-25T20:04:53.221Z,18.75
2022-12-25T20:09:50.183Z,17.88
2022-12-25T20:14:48.797Z,16.70
2022-12-25T20:19:45.894Z,16.83
2022-12-25T20:24:43.089Z,18.85
2022-12-25T20:29:43.312Z,18.73
2022-12-25T20:34:41.258Z,17.40
2022-12-25T20:39:38.635Z,17.20
2022-12-25T20:44:35.704Z,22.00
2022-12-25T20:49:34.168Z,21.50
2022-12-25T20:54:31.912Z,20.45
2022-12-25T20:59:33.592Z,23.70
2022-12-25T21:04:34.325Z,23.20
2022-12-25T21:09:33.043Z,22.13
2022-12-25T21:14:30.055Z,21.23
2022-12-25T21:19:27.377Z,22.00
2022-12-25T21:24:25.524Z,19.90
2022-12-25T21:29:23.883Z,21.80
2022-12-25T21:34:23.161Z,20.38
2022-12-25T21:39:20.022Z,24.60
2022-12-25T21:44:16.820Z,22.95
2022-12-25T21:49:36.817Z,22.42
2022-12-25T21:54:34.445Z,21.60
2022-12-25T21:59:31.555Z,50.25
2022-12-25T22:04:29.177Z,22.02
2022-12-25T22:09:26.817Z,28.60
2022-12-25T22:14:52.834Z,23.40
2022-12-25T22:19:51.466Z,29.13
2022-12-25T22:24:50.095Z,28.40
2022-12-25T22:29:48.288Z,28.80
2022-12-25T22:34:45.112Z,31.40
2022-12-25T22:39:43.354Z,28.27
2022-12-25T22:44:40.431Z,29.85
2022-12-25T22:49:37.476Z,25.95
2022-12-25T22:54:37.457Z,25.73
2022-12-25T22:59:35.267Z,23.80
2022-12-25T23:04:37.012Z,25.58
2022-12-25T23:09:34.319Z,25.30
2022-12-25T23:14:39.950Z,26.95
2022-12-25T23:19:55.752Z,28.85
2022-12-25T23:25:10.984Z,28.20
2022-12-25T23:30:10.200Z,27.37
2022-12-25T23:35:09.114Z,23.50
2022-12-25T23:40:07.702Z,20.33
2022-12-25T23:45:05.237Z,17.10
2022-12-25T23:50:02.612Z,15.10
2022-12-25T23:55:00.298Z,17.65
2022-12-25T23:59:57.093Z,17.27
